Time;durP1;ratioP1;P1;durP2;ratioP2;P2;SDS_P1;SDS_P2;PMS_P1;PMS_P2;Temp;Humidity;BMP_temperature;BMP_pressure;BME280_temperature;BME280_humidity;BME280_pressure;Samples;Min_cycle;Max_cycle;Signal;HPM_P1;HPM_P2
2022/05/31 00:16:01;;;;;;;;;;;;;;;;;;6191673;23;19928;-86
2022/05/31 00:18:32;;;;;;;;;;;;;;;;;;6168995;23;20340;-86
2022/05/31 00:20:59;;;;;;;;;;;;;;;;;;6148519;23;19919;-86
2022/05/31 00:23:30;;;;;;;;;;;;;;;;;;6147378;23;20713;-86
2022/05/31 00:25:57;;;;;;;;;;;;;;;;;;6148235;23;19919;-86
2022/05/31 00:28:24;;;;;;;;;;;;;;;;;;6144475;23;19919;-86
2022/05/31 00:30:55;;;;;;;;;;;;;;;;;;6147976;23;19920;-86
2022/05/31 00:33:22;;;;;;;;;;;;;;;;;;6170691;23;20007;-86
2022/05/31 00:35:53;;;;;;;;;;;;;;;;;;6150386;23;19920;-86
2022/05/31 00:38:23;;;;;;;;;;;;;;;;;;6172041;23;20007;-86
2022/05/31 00:40:51;;;;;;;;;;;;;;;;;;6148275;23;19923;-86
2022/05/31 00:43:27;;;;;;;;;;;;;;;;;;6172801;23;19962;-86
2022/05/31 00:46:24;;;;;;;;;;;;;;;;;;6178559;23;20101;-87
2022/05/31 00:55:09;;;;;;;;;;;;;;;;;;6071218;23;19973;-86
2022/05/31 00:57:36;;;;;;;;;;;;;;;;;;6030054;23;19925;-86
2022/05/31 01:00:03;;;;;;;;;;;;;;;;;;6053952;23;19992;-86
2022/05/31 01:02:30;;;;;;;;;;;;;;;;;;6029478;23;19948;-86
2022/05/31 01:05:01;;;;;;;;;;;;;;;;;;6030509;23;19921;-86
2022/05/31 01:07:29;;;;;;;;;;;;;;;;;;6027970;23;20269;-86
2022/05/31 01:09:56;;;;;;;;;;;;;;;;;;6055542;23;20000;-86
2022/05/31 01:12:28;;;;;;;;;;;;;;;;;;6026924;23;20277;-86
2022/05/31 01:14:55;;;;;;;;;;;;;;;;;;6051833;23;19943;-86
2022/05/31 01:17:22;;;;;;;;;;;;;;;;;;6051260;23;20424;-86
2022/05/31 01:19:57;;;;;;;;;;;;;;;;;;6043334;23;19924;-86
2022/05/31 01:22:24;;;;;;;;;;;;;;;;;;6055769;23;20452;-86
2022/05/31 01:24:51;;;;;;;;;;;;;;;;;;6059384;23;19921;-86
2022/05/31 01:27:22;;;;;;;;;;;;;;;;;;6082158;23;19925;-86
2022/05/31 01:29:49;;;;;;;;;;;;;;;;;;6082065;23;20370;-86
2022/05/31 01:32:16;;;;;;;;;;;;;;;;;;6125631;23;19965;-85
2022/05/31 01:34:43;;;;;;;;;;;;;;;;;;6194470;23;19920;-86
2022/05/31 01:37:10;;;;;;;;;;;;;;;;;;6145254;23;19923;-86
2022/05/31 01:39:38;;;;;;;;;;;;;;;;;;6169688;23;19916;-86
2022/05/31 01:42:05;;;;;;;;;;;;;;;;;;6172245;23;19936;-86
2022/05/31 01:44:31;;;;;;;;;;;;;;;;;;6194023;23;19931;-85
2022/05/31 01:46:58;;;;;;;;;;;;;;;;;;6196966;23;19920;-85
2022/05/31 01:49:24;;;;;;;;;;;;;;;;;;6145855;23;19923;-86
2022/05/31 01:51:51;;;;;;;;;;;;;;;;;;6150519;23;19926;-85
2022/05/31 01:54:21;;;;;;;;;;;;;;;;;;6148788;23;19974;-86
2022/05/31 01:56:49;;;;;;;;;;;;;;;;;;6148584;23;19920;-86
2022/05/31 01:59:20;;;;;;;;;;;;;;;;;;6148611;23;20222;-86
2022/05/31 02:01:46;;;;;;;;;;;;;;;;;;6148375;23;20491;-86
2022/05/31 02:04:14;;;;;;;;;;;;;;;;;;6171395;23;19978;-86
2022/05/31 02:06:41;;;;;;;;;;;;;;;;;;6144613;23;19991;-86
2022/05/31 02:09:08;;;;;;;;;;;;;;;;;;6146288;23;19951;-86
2022/05/31 02:11:47;;;;;;;;;;;;;;;;;;6173044;23;19920;-86
2022/05/31 02:17:25;;;;;;;;;;;;;;;;;;6113554;23;19983;-86
2022/05/31 02:19:52;;;;;;;;;;;;;;;;;;6078926;23;20433;-86
2022/05/31 02:22:20;;;;;;;;;;;;;;;;;;6078626;23;19960;-86
2022/05/31 02:24:47;;;;;;;;;;;;;;;;;;6081730;23;20008;-86
2022/05/31 02:27:14;;;;;;;;;;;;;;;;;;6082479;23;20417;-86
2022/05/31 02:29:57;;;;;;;;;;;;;;;;;;6104735;23;19927;-86
2022/05/31 02:32:24;;;;;;;;;;;;;;;;;;6080854;23;19932;-86
2022/05/31 02:34:56;;;;;;;;;;;;;;;;;;6082664;23;20417;-86
2022/05/31 02:37:22;;;;;;;;;;;;;;;;;;6079287;23;20272;-86
2022/05/31 02:40:03;;;;;;;;;;;;;;;;;;6047547;23;19953;-86
2022/05/31 02:42:29;;;;;;;;;;;;;;;;;;6023148;23;20075;-86
2022/05/31 02:44:56;;;;;;;;;;;;;;;;;;6024450;23;19924;-86
2022/05/31 02:47:23;;;;;;;;;;;;;;;;;;6050032;23;19944;-86
2022/05/31 02:49:53;;;;;;;;;;;;;;;;;;6027138;23;19993;-86
2022/05/31 02:52:21;;;;;;;;;;;;;;;;;;6027601;23;19928;-86
2022/05/31 02:54:48;;;;;;;;;;;;;;;;;;6069999;23;19920;-86
2022/05/31 02:57:15;;;;;;;;;;;;;;;;;;6112248;23;19920;-86
2022/05/31 02:59:43;;;;;;;;;;;;;;;;;;6107990;23;19925;-86
2022/05/31 03:02:11;;;;;;;;;;;;;;;;;;6110410;23;20261;-86
2022/05/31 03:04:39;;;;;;;;;;;;;;;;;;6109549;23;19917;-86
2022/05/31 03:07:24;;;;;;;;;;;;;;;;;;6067157;23;20266;-86
2022/05/31 03:09:54;;;;;;;;;;;;;;;;;;6056587;23;20193;-86
2022/05/31 03:12:21;;;;;;;;;;;;;;;;;;6114276;23;19963;-86
2022/05/31 03:14:49;;;;;;;;;;;;;;;;;;6089445;23;19924;-86
2022/05/31 03:17:19;;;;;;;;;;;;;;;;;;6089218;23;19928;-86
2022/05/31 03:19:46;;;;;;;;;;;;;;;;;;6113176;23;19961;-86
2022/05/31 03:22:13;;;;;;;;;;;;;;;;;;6088663;23;19920;-86
2022/05/31 03:24:40;;;;;;;;;;;;;;;;;;6088185;23;19921;-86
2022/05/31 03:27:11;;;;;;;;;;;;;;;;;;6090263;23;19917;-86
2022/05/31 03:29:43;;;;;;;;;;;;;;;;;;6088269;23;19921;-86
2022/05/31 03:32:10;;;;;;;;;;;;;;;;;;6091757;23;19931;-86
2022/05/31 03:34:37;;;;;;;;;;;;;;;;;;6087625;23;19963;-86
2022/05/31 03:37:05;;;;;;;;;;;;;;;;;;6090316;23;19921;-86
2022/05/31 03:39:32;;;;;;;;;;;;;;;;;;6117064;23;19950;-86
2022/05/31 03:41:59;;;;;;;;;;;;;;;;;;6144413;23;19920;-86
2022/05/31 03:44:26;;;;;;;;;;;;;;;;;;6142466;23;19920;-86
2022/05/31 03:46:54;;;;;;;;;;;;;;;;;;6146472;23;20007;-86
2022/05/31 03:49:21;;;;;;;;;;;;;;;;;;6143920;23;20013;-86
2022/05/31 03:51:48;;;;;;;;;;;;;;;;;;6148589;23;20039;-86
2022/05/31 03:54:15;;;;;;;;;;;;;;;;;;6147106;23;20284;-87
2022/05/31 03:56:43;;;;;;;;;;;;;;;;;;6145258;23;20394;-87
2022/05/31 03:59:13;;;;;;;;;;;;;;;;;;6145452;23;19974;-87
2022/05/31 04:01:41;;;;;;;;;;;;;;;;;;6142514;23;19926;-87
2022/05/31 04:04:08;;;;;;;;;;;;;;;;;;6145625;23;20006;-86
2022/05/31 04:06:35;;;;;;;;;;;;;;;;;;6141193;23;19966;-86
2022/05/31 04:09:03;;;;;;;;;;;;;;;;;;6145835;23;19920;-86
2022/05/31 04:11:30;;;;;;;;;;;;;;;;;;6143997;23;19917;-86
2022/05/31 04:14:00;;;;;;;;;;;;;;;;;;6144101;23;19962;-86
2022/05/31 04:16:28;;;;;;;;;;;;;;;;;;6146171;23;20015;-86
2022/05/31 04:18:55;;;;;;;;;;;;;;;;;;6173845;23;19919;-87
2022/05/31 04:21:25;;;;;;;;;;;;;;;;;;6172996;23;19978;-87
2022/05/31 04:23:59;;;;;;;;;;;;;;;;;;6173388;23;19924;-86
2022/05/31 04:26:26;;;;;;;;;;;;;;;;;;6148401;23;20638;-86
2022/05/31 04:28:53;;;;;;;;;;;;;;;;;;6176118;23;19916;-86
2022/05/31 04:31:24;;;;;;;;;;;;;;;;;;6174750;23;19963;-86
2022/05/31 04:33:51;;;;;;;;;;;;;;;;;;6147342;23;19920;-86
2022/05/31 04:36:22;;;;;;;;;;;;;;;;;;6150136;23;19919;-87
2022/05/31 04:38:49;;;;;;;;;;;;;;;;;;6176173;23;19916;-87
2022/05/31 04:41:16;;;;;;;;;;;;;;;;;;6150484;23;20331;-87
2022/05/31 04:43:46;;;;;;;;;;;;;;;;;;6173323;23;19931;-87
2022/05/31 04:46:14;;;;;;;;;;;;;;;;;;6150246;23;19920;-87
2022/05/31 04:48:40;;;;;;;;;;;;;;;;;;6148125;23;20475;-87
2022/05/31 04:51:13;;;;;;;;;;;;;;;;;;6154217;23;20241;-88
2022/05/31 04:53:43;;;;;;;;;;;;;;;;;;6151861;23;20965;-87
2022/05/31 04:56:18;;;;;;;;;;;;;;;;;;6151456;23;20257;-87
2022/05/31 04:58:46;;;;;;;;;;;;;;;;;;6151578;23;20319;-87
2022/05/31 05:01:13;;;;;;;;;;;;;;;;;;6153204;23;20028;-87
2022/05/31 05:04:01;;;;;;;;;;;;;;;;;;6172791;23;20392;-86
2022/05/31 05:06:34;;;;;;;;;;;;;;;;;;6167530;23;19924;-87
2022/05/31 05:09:00;;;;;;;;;;;;;;;;;;6148000;23;20216;-87
2022/05/31 05:11:26;;;;;;;;;;;;;;;;;;6151008;23;19920;-87
2022/05/31 05:13:53;;;;;;;;;;;;;;;;;;6149384;23;19970;-87
2022/05/31 05:16:19;;;;;;;;;;;;;;;;;;6176609;23;19924;-87
2022/05/31 05:18:49;;;;;;;;;;;;;;;;;;6178202;23;19919;-87
2022/05/31 05:21:16;;;;;;;;;;;;;;;;;;6151393;23;19919;-87
2022/05/31 05:23:43;;;;;;;;;;;;;;;;;;6173211;23;20419;-87
2022/05/31 05:26:11;;;;;;;;;;;;;;;;;;6152033;23;19920;-87
2022/05/31 05:31:27;;;;;;;;;;;;;;;;;;6172555;23;19920;-89
2022/05/31 05:33:54;;;;;;;;;;;;;;;;;;6150821;23;19965;-89
2022/05/31 05:36:24;;;;;;;;;;;;;;;;;;6145854;23;19947;-89
2022/05/31 05:38:51;;;;;;;;;;;;;;;;;;6172021;23;19923;-88
2022/05/31 05:41:17;;;;;;;;;;;;;;;;;;6172238;23;19924;-89
2022/05/31 05:43:45;;;;;;;;;;;;;;;;;;6146268;23;19991;-89
2022/05/31 05:46:14;;;;;;;;;;;;;;;;;;6148329;23;20058;-89
2022/05/31 05:48:41;;;;;;;;;;;;;;;;;;6147202;23;20347;-88
2022/05/31 05:51:31;;;;;;;;;;;;;;;;;;6140372;23;19924;-89
2022/05/31 05:54:02;;;;;;;;;;;;;;;;;;6121318;23;20325;-89
2022/05/31 05:56:28;;;;;;;;;;;;;;;;;;6142860;23;19988;-88
2022/05/31 05:58:56;;;;;;;;;;;;;;;;;;6116983;23;19955;-89
2022/05/31 06:01:23;;;;;;;;;;;;;;;;;;6116294;23;19978;-88
2022/05/31 06:03:54;;;;;;;;;;;;;;;;;;6122364;23;20321;-88
2022/05/31 06:06:20;;;;;;;;;;;;;;;;;;6121283;23;20613;-88
2022/05/31 06:08:50;;;;;;;;;;;;;;;;;;6148037;23;19962;-88
2022/05/31 06:11:18;;;;;;;;;;;;;;;;;;6121494;23;19924;-88
2022/05/31 06:13:45;;;;;;;;;;;;;;;;;;6121119;23;19920;-89
2022/05/31 06:16:12;;;;;;;;;;;;;;;;;;6110385;23;19929;-89
2022/05/31 06:18:42;;;;;;;;;;;;;;;;;;6089905;23;20407;-88
2022/05/31 06:21:21;;;;;;;;;;;;;;;;;;6118430;23;19921;-89
2022/05/31 06:23:49;;;;;;;;;;;;;;;;;;6116884;23;20415;-89
2022/05/31 06:26:17;;;;;;;;;;;;;;;;;;6093371;23;19956;-89
2022/05/31 06:28:44;;;;;;;;;;;;;;;;;;6116052;23;19991;-89
2022/05/31 06:31:11;;;;;;;;;;;;;;;;;;6118241;23;20055;-89
2022/05/31 06:33:40;;;;;;;;;;;;;;;;;;6109093;23;19924;-89
2022/05/31 06:36:07;;;;;;;;;;;;;;;;;;6164959;23;20002;-89
2022/05/31 06:38:35;;;;;;;;;;;;;;;;;;6143683;23;19920;-89
2022/05/31 06:41:05;;;;;;;;;;;;;;;;;;6142640;23;20004;-89
2022/05/31 06:43:38;;;;;;;;;;;;;;;;;;6140806;23;19927;-88
2022/05/31 06:46:06;;;;;;;;;;;;;;;;;;6149104;23;19920;-89
2022/05/31 06:48:42;;;;;;;;;;;;;;;;;;6145774;23;20244;-89
2022/05/31 06:51:10;;;;;;;;;;;;;;;;;;6126228;23;19991;-89
2022/05/31 06:59:16;;;;;;;;;;;;;;;;;;6147705;23;19920;-90
2022/05/31 07:01:44;;;;;;;;;;;;;;;;;;6147004;23;19920;-89
2022/05/31 07:04:12;;;;;;;;;;;;;;;;;;6125620;23;19924;-89
2022/05/31 07:06:39;;;;;;;;;;;;;;;;;;6124245;23;19920;-89
2022/05/31 07:09:20;;;;;;;;;;;;;;;;;;6049997;23;20029;-90
2022/05/31 07:11:48;;;;;;;;;;;;;;;;;;6061225;23;19929;-90
2022/05/31 07:14:14;;;;;;;;;;;;;;;;;;6059181;23;19960;-90
2022/05/31 07:16:40;;;;;;;;;;;;;;;;;;6063094;23;19973;-89
2022/05/31 07:19:06;;;;;;;;;;;;;;;;;;6111781;23;19921;-90
2022/05/31 07:21:35;;;;;;;;;;;;;;;;;;6062450;23;19921;-90
2022/05/31 07:24:02;;;;;;;;;;;;;;;;;;6063507;23;19929;-90
2022/05/31 07:26:30;;;;;;;;;;;;;;;;;;6061309;23;19917;-87
2022/05/31 07:28:57;;;;;;;;;;;;;;;;;;6064306;23;19921;-87
2022/05/31 07:31:24;;;;;;;;;;;;;;;;;;6063585;23;19921;-88
2022/05/31 07:33:50;;;;;;;;;;;;;;;;;;6063632;23;20365;-88
2022/05/31 07:36:20;;;;;;;;;;;;;;;;;;6083078;23;19943;-88
2022/05/31 07:38:47;;;;;;;;;;;;;;;;;;6078182;23;19952;-88
2022/05/31 07:41:15;;;;;;;;;;;;;;;;;;6130343;23;19943;-88
2022/05/31 07:43:41;;;;;;;;;;;;;;;;;;6151725;23;19950;-88
2022/05/31 07:46:10;;;;;;;;;;;;;;;;;;6178718;23;19947;-88
2022/05/31 07:48:37;;;;;;;;;;;;;;;;;;6176399;23;19920;-88
2022/05/31 07:51:04;;;;;;;;;;;;;;;;;;6178909;23;19923;-88
2022/05/31 07:53:31;;;;;;;;;;;;;;;;;;6180351;23;19952;-88
2022/05/31 07:55:59;;;;;;;;;;;;;;;;;;6156436;23;20009;-88
2022/05/31 07:58:42;;;;;;;;;;;;;;;;;;6141211;23;20354;-88
2022/05/31 08:01:10;;;;;;;;;;;;;;;;;;6117658;23;19924;-88
2022/05/31 08:03:37;;;;;;;;;;;;;;;;;;6117979;23;20547;-89
2022/05/31 08:06:25;;;;;;;;;;;;;;;;;;6087243;23;20258;-88
2022/05/31 08:08:52;;;;;;;;;;;;;;;;;;6091430;23;19921;-88
2022/05/31 08:11:20;;;;;;;;;;;;;;;;;;6115031;23;19985;-88
2022/05/31 08:13:48;;;;;;;;;;;;;;;;;;6065730;23;19921;-88
2022/05/31 08:16:16;;;;;;;;;;;;;;;;;;6090631;23;19925;-88
2022/05/31 08:18:42;;;;;;;;;;;;;;;;;;6086937;23;20281;-88
2022/05/31 08:21:10;;;;;;;;;;;;;;;;;;6089878;23;19917;-88
2022/05/31 08:23:37;;;;;;;;;;;;;;;;;;6064040;23;19951;-88
2022/05/31 08:26:05;;;;;;;;;;;;;;;;;;6066300;23;19927;-87
2022/05/31 08:28:32;;;;;;;;;;;;;;;;;;6064276;23;19925;-89
2022/05/31 08:30:58;;;;;;;;;;;;;;;;;;6146532;23;19925;-88
2022/05/31 08:33:28;;;;;;;;;;;;;;;;;;6145465;23;19920;-88
2022/05/31 08:35:54;;;;;;;;;;;;;;;;;;6124369;23;19920;-89
2022/05/31 08:38:25;;;;;;;;;;;;;;;;;;6146700;23;19963;-88
2022/05/31 08:40:53;;;;;;;;;;;;;;;;;;6150610;23;19920;-88
2022/05/31 08:43:19;;;;;;;;;;;;;;;;;;6126591;23;19955;-89
2022/05/31 08:45:53;;;;;;;;;;;;;;;;;;6151690;23;19967;-89
2022/05/31 08:48:23;;;;;;;;;;;;;;;;;;6173127;23;19920;-88
2022/05/31 08:53:33;;;;;;;;;;;;;;;;;;6172256;23;19960;-89
2022/05/31 08:58:59;;;;;;;;;;;;;;;;;;6113883;23;20373;-89
2022/05/31 09:01:25;;;;;;;;;;;;;;;;;;6085374;23;19965;-89
2022/05/31 09:03:52;;;;;;;;;;;;;;;;;;6112958;23;19927;-89
2022/05/31 09:06:21;;;;;;;;;;;;;;;;;;6065494;23;19947;-89
2022/05/31 09:08:48;;;;;;;;;;;;;;;;;;6089701;23;19921;-89
2022/05/31 09:11:16;;;;;;;;;;;;;;;;;;6092252;23;20003;-89
2022/05/31 09:13:43;;;;;;;;;;;;;;;;;;6065743;23;20022;-89
2022/05/31 09:16:11;;;;;;;;;;;;;;;;;;6089924;23;20286;-89
2022/05/31 09:18:38;;;;;;;;;;;;;;;;;;6062457;23;20235;-88
2022/05/31 09:21:08;;;;;;;;;;;;;;;;;;6113603;23;19944;-90
2022/05/31 09:23:38;;;;;;;;;;;;;;;;;;6087826;23;19921;-89
2022/05/31 09:26:08;;;;;;;;;;;;;;;;;;6087938;23;20657;-89
2022/05/31 09:28:36;;;;;;;;;;;;;;;;;;6062782;23;20692;-89
2022/05/31 09:31:03;;;;;;;;;;;;;;;;;;6148895;23;20328;-89
2022/05/31 09:33:29;;;;;;;;;;;;;;;;;;6177265;23;19923;-88
2022/05/31 09:35:56;;;;;;;;;;;;;;;;;;6179727;23;19955;-87
2022/05/31 09:38:23;;;;;;;;;;;;;;;;;;6177244;23;19943;-87
2022/05/31 09:41:05;;;;;;;;;;;;;;;;;;6206921;23;20000;-87
2022/05/31 09:43:35;;;;;;;;;;;;;;;;;;6176959;23;19916;-88
2022/05/31 09:46:05;;;;;;;;;;;;;;;;;;6180528;23;19922;-88
2022/05/31 09:48:32;;;;;;;;;;;;;;;;;;6153182;23;19924;-87
2022/05/31 09:51:00;;;;;;;;;;;;;;;;;;6205233;23;20333;-89
2022/05/31 09:59:24;;;;;;;;;;;;;;;;;;6111736;23;19924;-88
2022/05/31 10:01:51;;;;;;;;;;;;;;;;;;6114724;23;19921;-89
2022/05/31 10:04:27;;;;;;;;;;;;;;;;;;6111430;23;19984;-89
2022/05/31 10:06:55;;;;;;;;;;;;;;;;;;6089206;23;19920;-89
2022/05/31 10:09:37;;;;;;;;;;;;;;;;;;6112650;23;20303;-89
2022/05/31 10:12:04;;;;;;;;;;;;;;;;;;6090034;23;20582;-89
2022/05/31 10:14:31;;;;;;;;;;;;;;;;;;6107511;23;20242;-89
2022/05/31 10:16:58;;;;;;;;;;;;;;;;;;6084624;23;20480;-88
2022/05/31 10:19:26;;;;;;;;;;;;;;;;;;6082685;23;19917;-89
2022/05/31 10:21:53;;;;;;;;;;;;;;;;;;6058701;23;20303;-88
2022/05/31 10:24:34;;;;;;;;;;;;;;;;;;6083668;23;19959;-89
2022/05/31 10:27:01;;;;;;;;;;;;;;;;;;6124877;23;20333;-88
2022/05/31 10:29:29;;;;;;;;;;;;;;;;;;6120650;23;20003;-88
2022/05/31 10:31:56;;;;;;;;;;;;;;;;;;6124357;23;19924;-88
2022/05/31 10:34:23;;;;;;;;;;;;;;;;;;6122073;23;19920;-87
2022/05/31 10:36:50;;;;;;;;;;;;;;;;;;6123257;23;19974;-89
2022/05/31 10:39:20;;;;;;;;;;;;;;;;;;6110093;23;19925;-87
2022/05/31 10:41:48;;;;;;;;;;;;;;;;;;6088368;23;19921;-87
2022/05/31 10:44:14;;;;;;;;;;;;;;;;;;6104708;23;19985;-86
2022/05/31 10:46:47;;;;;;;;;;;;;;;;;;6140343;23;19959;-86
2022/05/31 10:49:17;;;;;;;;;;;;;;;;;;6092859;23;19920;-88
2022/05/31 10:51:50;;;;;;;;;;;;;;;;;;6080998;23;19921;-88
2022/05/31 10:54:17;;;;;;;;;;;;;;;;;;6034836;23;19921;-87
2022/05/31 10:56:44;;;;;;;;;;;;;;;;;;6023081;23;19921;-88
2022/05/31 10:59:10;;;;;;;;;;;;;;;;;;6002998;23;20072;-87
2022/05/31 11:01:36;;;;;;;;;;;;;;;;;;5998342;23;19954;-88
2022/05/31 11:04:02;;;;;;;;;;;;;;;;;;6025462;23;19917;-88
2022/05/31 11:06:39;;;;;;;;;;;;;;;;;;;;;
2022/05/31 11:12:07;;;;;;;;;;;;;;;;;;6026975;23;19965;-88
2022/05/31 11:14:37;;;;;;;;;;;;;;;;;;6025348;23;20609;-88
2022/05/31 11:17:11;;;;;;;;;;;;;;;;;;6054261;23;19918;-88
2022/05/31 11:19:37;;;;;;;;;;;;;;;;;;6030146;23;20160;-89
2022/05/31 11:22:23;;;;;;;;;;;;;;;;;;6082466;23;19986;-88
2022/05/31 11:24:54;;;;;;;;;;;;;;;;;;6089938;23;20245;-88
2022/05/31 11:27:24;;;;;;;;;;;;;;;;;;6114971;23;20435;-87
2022/05/31 11:29:52;;;;;;;;;;;;;;;;;;6095860;23;20741;-87
2022/05/31 11:32:32;;;;;;;;;;;;;;;;;;6142239;23;19996;-88
2022/05/31 11:35:00;;;;;;;;;;;;;;;;;;6168330;23;19927;-88
2022/05/31 11:37:28;;;;;;;;;;;;;;;;;;6152795;23;19916;-88
2022/05/31 11:39:54;;;;;;;;;;;;;;;;;;6155840;23;20580;-88
2022/05/31 11:42:23;;;;;;;;;;;;;;;;;;6205009;23;19916;-88
2022/05/31 11:44:54;;;;;;;;;;;;;;;;;;6180212;23;19942;-88
2022/05/31 11:47:21;;;;;;;;;;;;;;;;;;6153771;23;19919;-88
2022/05/31 11:50:00;;;;;;;;;;;;;;;;;;6181944;23;19920;-88
2022/05/31 11:52:27;;;;;;;;;;;;;;;;;;6153431;23;19926;-88
2022/05/31 11:57:57;;;;;;;;;;;;;;;;;;6216811;23;19915;-88
2022/05/31 12:00:27;;;;;;;;;;;;;;;;;;6203218;23;19926;-88
2022/05/31 12:02:55;;;;;;;;;;;;;;;;;;6154889;23;19991;-88
2022/05/31 12:05:22;;;;;;;;;;;;;;;;;;6152804;23;20036;-89
2022/05/31 12:07:50;;;;;;;;;;;;;;;;;;6154291;23;19920;-88
2022/05/31 12:10:20;;;;;;;;;;;;;;;;;;6204733;23;19919;-88
2022/05/31 12:12:52;;;;;;;;;;;;;;;;;;6179409;23;20586;-88
2022/05/31 12:15:22;;;;;;;;;;;;;;;;;;6154595;23;19924;-87
2022/05/31 12:17:53;;;;;;;;;;;;;;;;;;6179206;23;19920;-88
2022/05/31 12:20:29;;;;;;;;;;;;;;;;;;6179933;23;20394;-88
2022/05/31 12:23:01;;;;;;;;;;;;;;;;;;6179928;23;19916;-87
2022/05/31 12:25:28;;;;;;;;;;;;;;;;;;6154065;23;19948;-88
2022/05/31 12:27:56;;;;;;;;;;;;;;;;;;6153461;23;19927;-88
2022/05/31 12:30:22;;;;;;;;;;;;;;;;;;6176450;23;19952;-88
2022/05/31 12:32:48;;;;;;;;;;;;;;;;;;6155216;23;20213;-88
2022/05/31 12:35:38;;;;;;;;;;;;;;;;;;6204088;23;19935;-88
2022/05/31 12:38:06;;;;;;;;;;;;;;;;;;6154203;23;19920;-88
2022/05/31 12:40:34;;;;;;;;;;;;;;;;;;6176023;23;19923;-87
2022/05/31 12:43:04;;;;;;;;;;;;;;;;;;6155029;23;19915;-88
2022/05/31 12:45:41;;;;;;;;;;;;;;;;;;6179563;23;20419;-87
2022/05/31 12:48:08;;;;;;;;;;;;;;;;;;6204280;23;19978;-88
2022/05/31 12:50:35;;;;;;;;;;;;;;;;;;6153678;23;19924;-88
2022/05/31 12:53:17;;;;;;;;;;;;;;;;;;6156044;23;20019;-87
2022/05/31 12:55:44;;;;;;;;;;;;;;;;;;6152965;23;19920;-88
2022/05/31 13:01:11;;;;;;;;;;;;;;;;;;6206730;23;20033;-88
2022/05/31 13:03:37;;;;;;;;;;;;;;;;;;6152006;23;19921;-88
2022/05/31 13:06:24;;;;;;;;;;;;;;;;;;6204123;23;19998;-88
2022/05/31 13:08:59;;;;;;;;;;;;;;;;;;6179606;23;19967;-87
2022/05/31 13:20:13;;;;;;;;;;;;;;;;;;6180008;23;20374;-87
2022/05/31 13:22:40;;;;;;;;;;;;;;;;;;6176498;23;20903;-87
2022/05/31 13:25:06;;;;;;;;;;;;;;;;;;6154659;23;19952;-87
2022/05/31 13:27:34;;;;;;;;;;;;;;;;;;6152917;23;19920;-87
2022/05/31 13:30:01;;;;;;;;;;;;;;;;;;6153809;23;19973;-87
2022/05/31 13:32:31;;;;;;;;;;;;;;;;;;6178174;23;19919;-88
2022/05/31 13:34:59;;;;;;;;;;;;;;;;;;6153344;23;19923;-88
2022/05/31 13:37:26;;;;;;;;;;;;;;;;;;6174958;23;19916;-88
2022/05/31 13:39:53;;;;;;;;;;;;;;;;;;6152539;23;19927;-88
2022/05/31 13:42:38;;;;;;;;;;;;;;;;;;6180110;23;19915;-88
2022/05/31 13:45:24;;;;;;;;;;;;;;;;;;6182378;23;19966;-87
2022/05/31 13:47:51;;;;;;;;;;;;;;;;;;6152969;23;19991;-87
2022/05/31 13:50:18;;;;;;;;;;;;;;;;;;6152478;23;19924;-87
2022/05/31 13:53:00;;;;;;;;;;;;;;;;;;6204738;23;20049;-87
2022/05/31 13:55:27;;;;;;;;;;;;;;;;;;6148730;23;19981;-87
2022/05/31 13:57:54;;;;;;;;;;;;;;;;;;6204733;23;20018;-87
2022/05/31 14:00:21;;;;;;;;;;;;;;;;;;6176083;23;19920;-87
2022/05/31 14:03:00;;;;;;;;;;;;;;;;;;6203269;23;19920;-87
2022/05/31 14:05:39;;;;;;;;;;;;;;;;;;6202971;23;19916;-87
2022/05/31 14:08:05;;;;;;;;;;;;;;;;;;6178971;23;19963;-87
2022/05/31 14:10:39;;;;;;;;;;;;;;;;;;6175764;23;20018;-87
2022/05/31 14:13:09;;;;;;;;;;;;;;;;;;6202308;23;19955;-86
2022/05/31 14:15:56;;;;;;;;;;;;;;;;;;6203545;23;19924;-86
2022/05/31 14:18:23;;;;;;;;;;;;;;;;;;6173306;23;19986;-87
2022/05/31 14:20:50;;;;;;;;;;;;;;;;;;6178723;23;19919;-87
2022/05/31 14:23:21;;;;;;;;;;;;;;;;;;6203172;23;19920;-87
2022/05/31 14:26:00;;;;;;;;;;;;;;;;;;6200823;23;19920;-87
2022/05/31 14:28:28;;;;;;;;;;;;;;;;;;6149324;23;19920;-87
2022/05/31 14:31:06;;;;;;;;;;;;;;;;;;6202705;23;19942;-87
2022/05/31 14:33:36;;;;;;;;;;;;;;;;;;6174716;23;19920;-87
2022/05/31 14:36:03;;;;;;;;;;;;;;;;;;6152585;23;20252;-88
2022/05/31 14:38:30;;;;;;;;;;;;;;;;;;6148234;23;19920;-88
2022/05/31 14:40:57;;;;;;;;;;;;;;;;;;6174631;23;19927;-88
2022/05/31 14:43:25;;;;;;;;;;;;;;;;;;6198110;23;20307;-87
2022/05/31 14:45:52;;;;;;;;;;;;;;;;;;6150678;23;19947;-88
2022/05/31 14:48:21;;;;;;;;;;;;;;;;;;6151924;23;19920;-87
2022/05/31 14:50:48;;;;;;;;;;;;;;;;;;6150695;23;19920;-88
2022/05/31 14:53:16;;;;;;;;;;;;;;;;;;6175423;23;19935;-88
2022/05/31 14:55:57;;;;;;;;;;;;;;;;;;6201748;23;20668;-88
2022/05/31 14:58:41;;;;;;;;;;;;;;;;;;6170759;23;19919;-87
2022/05/31 15:01:28;;;;;;;;;;;;;;;;;;6134649;23;19920;-88
2022/05/31 15:04:14;;;;;;;;;;;;;;;;;;6104889;23;19917;-87
2022/05/31 15:06:41;;;;;;;;;;;;;;;;;;6115830;23;19975;-87
2022/05/31 15:09:09;;;;;;;;;;;;;;;;;;6119180;23;20313;-88
2022/05/31 15:20:13;;;;;;;;;;;;;;;;;;6113656;23;19920;-89
2022/05/31 15:22:49;;;;;;;;;;;;;;;;;;6138270;23;19920;-88
2022/05/31 15:25:30;;;;;;;;;;;;;;;;;;6080826;23;20440;-88
2022/05/31 15:27:57;;;;;;;;;;;;;;;;;;6035681;23;19964;-88
2022/05/31 15:30:25;;;;;;;;;;;;;;;;;;6055650;23;20024;-88
2022/05/31 15:32:51;;;;;;;;;;;;;;;;;;6029773;23;19926;-88
2022/05/31 15:35:18;;;;;;;;;;;;;;;;;;6030842;23;20544;-90
2022/05/31 15:37:46;;;;;;;;;;;;;;;;;;6029480;23;19928;-88
2022/05/31 15:40:12;;;;;;;;;;;;;;;;;;6052547;23;19969;-89
2022/05/31 15:42:39;;;;;;;;;;;;;;;;;;6051737;23;19940;-89
2022/05/31 15:45:06;;;;;;;;;;;;;;;;;;6055182;23;19972;-88
2022/05/31 15:47:37;;;;;;;;;;;;;;;;;;6079454;23;19956;-88
2022/05/31 15:50:03;;;;;;;;;;;;;;;;;;6110089;23;19944;-88
2022/05/31 15:52:31;;;;;;;;;;;;;;;;;;6106319;23;19946;-88
2022/05/31 15:54:59;;;;;;;;;;;;;;;;;;6107622;23;19928;-88
2022/05/31 15:57:29;;;;;;;;;;;;;;;;;;6103222;23;19931;-89
2022/05/31 15:59:56;;;;;;;;;;;;;;;;;;6109545;23;19921;-87
2022/05/31 16:02:26;;;;;;;;;;;;;;;;;;6122731;23;19920;-87
2022/05/31 16:04:54;;;;;;;;;;;;;;;;;;6172757;23;19974;-87
2022/05/31 16:07:25;;;;;;;;;;;;;;;;;;6145044;23;19921;-85
2022/05/31 16:09:52;;;;;;;;;;;;;;;;;;6148386;23;19936;-85
2022/05/31 16:12:21;;;;;;;;;;;;;;;;;;6056750;23;19982;-84
2022/05/31 16:14:47;;;;;;;;;;;;;;;;;;6057811;23;19967;-84
2022/05/31 16:17:14;;;;;;;;;;;;;;;;;;6084180;23;19925;-83
2022/05/31 16:19:40;;;;;;;;;;;;;;;;;;6077341;23;20473;-83
2022/05/31 16:22:12;;;;;;;;;;;;;;;;;;6085990;23;19925;-83
2022/05/31 16:24:40;;;;;;;;;;;;;;;;;;6076520;23;19921;-83
2022/05/31 16:27:12;;;;;;;;;;;;;;;;;;6110515;23;20964;-83
2022/05/31 16:29:45;;;;;;;;;;;;;;;;;;6104657;23;20405;-83
2022/05/31 16:32:13;;;;;;;;;;;;;;;;;;6085076;23;19984;-83
2022/05/31 16:34:42;;;;;;;;;;;;;;;;;;6083191;23;19928;-83
2022/05/31 16:42:53;;;;;;;;;;;;;;;;;;6125526;23;19928;-84
2022/05/31 16:45:21;;;;;;;;;;;;;;;;;;6175056;23;19986;-83
2022/05/31 16:47:49;;;;;;;;;;;;;;;;;;6176644;23;19916;-84
2022/05/31 16:50:16;;;;;;;;;;;;;;;;;;6175041;23;19924;-84
2022/05/31 16:53:00;;;;;;;;;;;;;;;;;;6200692;23;19926;-84
2022/05/31 16:55:29;;;;;;;;;;;;;;;;;;6110837;23;19959;-84
2022/05/31 16:57:56;;;;;;;;;;;;;;;;;;6112823;23;19921;-84
2022/05/31 17:00:42;;;;;;;;;;;;;;;;;;6139764;23;19922;-84
2022/05/31 17:03:27;;;;;;;;;;;;;;;;;;6117416;23;19920;-84
2022/05/31 17:14:22;;;;;;;;;;;;;;;;;;6118639;23;19946;-85
2022/05/31 17:14:41;;;;;;;;;;;;;;;;;;6105968;23;21076;-84
2022/05/31 17:17:08;;;;;;;;;;;;;;;;;;6104711;23;19931;-84
2022/05/31 17:19:36;;;;;;;;;;;;;;;;;;6110282;23;20288;-84
2022/05/31 17:22:03;;;;;;;;;;;;;;;;;;6113489;23;19920;-84
2022/05/31 17:24:29;;;;;;;;;;;;;;;;;;6111636;23;19921;-84
2022/05/31 17:26:56;;;;;;;;;;;;;;;;;;6132209;23;19970;-83
2022/05/31 17:29:23;;;;;;;;;;;;;;;;;;6112563;23;19920;-84
2022/05/31 17:31:54;;;;;;;;;;;;;;;;;;6114689;23;19920;-84
2022/05/31 17:34:23;;;;;;;;;;;;;;;;;;6142158;23;20002;-84
2022/05/31 17:36:52;;;;;;;;;;;;;;;;;;6114819;23;20868;-84
2022/05/31 17:39:18;;;;;;;;;;;;;;;;;;6114463;23;19928;-83
2022/05/31 17:41:55;;;;;;;;;;;;;;;;;;6140584;23;19971;-84
2022/05/31 17:44:29;;;;;;;;;;;;;;;;;;6142273;23;19929;-84
2022/05/31 17:46:56;;;;;;;;;;;;;;;;;;6141318;23;19978;-84
2022/05/31 17:49:24;;;;;;;;;;;;;;;;;;6111744;23;19921;-84
2022/05/31 17:51:50;;;;;;;;;;;;;;;;;;6115534;23;19959;-85
2022/05/31 17:54:17;;;;;;;;;;;;;;;;;;6168875;23;19920;-84
2022/05/31 17:56:43;;;;;;;;;;;;;;;;;;6165231;23;19920;-84
2022/05/31 17:59:09;;;;;;;;;;;;;;;;;;6119910;23;19920;-84
2022/05/31 18:01:37;;;;;;;;;;;;;;;;;;6168264;23;19916;-85
2022/05/31 18:04:04;;;;;;;;;;;;;;;;;;6146112;23;19920;-84
2022/05/31 18:06:51;;;;;;;;;;;;;;;;;;6082191;23;20445;-84
2022/05/31 18:09:18;;;;;;;;;;;;;;;;;;6059541;23;19925;-84
2022/05/31 18:11:46;;;;;;;;;;;;;;;;;;6083446;23;20334;-85
2022/05/31 18:14:13;;;;;;;;;;;;;;;;;;6109299;23;19973;-84
2022/05/31 18:16:49;;;;;;;;;;;;;;;;;;6126066;23;20250;-84
2022/05/31 18:19:16;;;;;;;;;;;;;;;;;;6114618;23;19917;-84
2022/05/31 18:21:43;;;;;;;;;;;;;;;;;;6085123;23;19921;-84
2022/05/31 18:24:27;;;;;;;;;;;;;;;;;;6026699;23;20401;-84